Terminal Aerodrome Forecast
Issued by NWS Greer, SC

Current Version | Previous Version | Text Only | Print | Product List | Glossary On
Versions: 1 2 3 4 5 6 7 8 9 10 11 12 13 14 15 16 17 18 19 20 21 22 23 24 25 26 27 28 29 30 31 32 33 34 35 36 37 38 39 40 41 42 43
000
FTUS42 KGSP 302337
TAFCLT
TAF
KCLT 302337Z 3100/3124 13006KT P6SM -SHRA OVC090
      TEMPO 3100/3103 5SM SHRA BR BKN060
     FM310600 11004KT P6SM OVC010
     FM310800 06003KT 3SM BR OVC008
     FM311500 08005KT P6SM BKN025
     FM311700 07006KT P6SM BKN060 PROB30 3118/3123 4SM TSRA
      BKN040CB=

USA.gov is the U.S. government's official web portal to all federal, state and local government web resources and services.